Time;durP1;ratioP1;P1;durP2;ratioP2;P2;SDS_P1;SDS_P2;PMS_P1;PMS_P2;Temp;Humidity;BMP_temperature;BMP_pressure;BME280_temperature;BME280_humidity;BME280_pressure;Samples;Min_cycle;Max_cycle;Signal;HPM_P1;HPM_P2
2021/03/27 00:01:14;;;;;;;14.67;12.40;;;;;;;8.73;58.81;98746.94;5095038;28;40098;-74
2021/03/27 00:03:51;;;;;;;18.17;11.80;;;;;;;8.71;59.16;98746.19;5095114;28;41738;-74
2021/03/27 00:06:23;;;;;;;13.97;10.53;;;;;;;8.62;59.02;98741.44;5094626;28;42779;-74
2021/03/27 00:08:53;;;;;;;13.83;10.70;;;;;;;8.67;59.14;98747.28;5089013;27;42166;-74
2021/03/27 00:11:29;;;;;;;16.13;11.00;;;;;;;8.62;58.84;98744.06;5105984;28;40542;-74
2021/03/27 00:14:01;;;;;;;15.37;11.70;;;;;;;8.62;59.53;98737.00;5094724;28;41961;-74
2021/03/27 00:16:35;;;;;;;15.23;11.77;;;;;;;8.61;59.19;98745.84;5112065;28;42395;-74
2021/03/27 00:19:08;;;;;;;13.50;10.40;;;;;;;8.57;59.16;98732.91;5112023;28;41950;-74
2021/03/27 00:21:39;;;;;;;14.33;11.03;;;;;;;8.57;59.10;98732.91;5111423;28;39799;-74
2021/03/27 00:24:12;;;;;;;11.60;9.63;;;;;;;8.53;59.23;98726.13;5093908;28;42360;-74
2021/03/27 00:26:43;;;;;;;13.70;9.43;;;;;;;8.58;59.40;98739.88;5093030;28;42758;-74
2021/03/27 00:29:18;;;;;;;13.03;10.20;;;;;;;8.62;59.34;98738.78;5094601;28;41498;-74
2021/03/27 00:31:50;;;;;;;12.10;9.50;;;;;;;8.61;59.28;98739.72;5112016;28;40709;-74
2021/03/27 00:34:21;;;;;;;11.73;10.53;;;;;;;8.60;59.12;98745.94;5094645;28;40914;-74
2021/03/27 00:36:53;;;;;;;14.17;10.13;;;;;;;8.59;59.66;98742.44;5110287;28;43542;-74
2021/03/27 00:39:24;;;;;;;11.50;10.00;;;;;;;8.57;59.76;98735.53;5111789;28;42921;-74
2021/03/27 00:41:56;;;;;;;13.43;10.77;;;;;;;8.55;59.83;98735.63;5093644;28;40595;-74
2021/03/27 00:44:28;;;;;;;12.10;10.43;;;;;;;8.53;59.76;98732.22;5094434;28;41519;-75
2021/03/27 00:46:59;;;;;;;12.13;9.67;;;;;;;8.50;60.13;98726.28;5092793;28;42545;-74
2021/03/27 00:49:33;;;;;;;14.30;10.37;;;;;;;8.52;60.04;98734.97;5093259;28;41870;-74
2021/03/27 00:52:04;;;;;;;13.77;9.97;;;;;;;8.52;60.30;98729.69;5111692;28;40109;-74
2021/03/27 00:54:39;;;;;;;15.60;11.47;;;;;;;8.50;60.38;98736.84;5092953;28;42524;-75
2021/03/27 00:57:12;;;;;;;15.67;11.33;;;;;;;8.44;60.21;98737.16;5093255;28;43358;-74
2021/03/27 00:59:54;;;;;;;11.13;9.27;;;;;;;8.39;61.47;98726.03;5093594;28;42600;-74
2021/03/27 01:02:27;;;;;;;12.53;10.17;;;;;;;8.37;60.99;98736.66;5077152;28;40244;-74
2021/03/27 01:05:24;;;;;;;16.00;12.03;;;;;;;8.32;62.93;98722.88;5071538;28;41661;-74
2021/03/27 01:08:19;;;;;;;16.00;12.37;;;;;;;8.27;62.42;98720.47;5111210;28;42772;-74
2021/03/27 01:11:21;;;;;;;17.00;12.53;;;;;;;8.28;62.23;98722.13;5093415;28;41934;-75
2021/03/27 01:13:55;;;;;;;14.80;11.30;;;;;;;8.29;61.84;98736.19;5094136;28;39940;-74
2021/03/27 01:16:26;;;;;;;16.67;13.37;;;;;;;8.23;61.97;98713.66;5093485;28;40573;-74
2021/03/27 01:18:59;;;;;;;13.73;10.33;;;;;;;8.19;62.15;98712.09;5072975;28;42787;-74
2021/03/27 01:21:30;;;;;;;15.33;11.10;;;;;;;8.25;62.20;98727.63;5072347;28;42744;-74
2021/03/27 01:24:00;;;;;;;15.93;11.10;;;;;;;8.13;62.38;98711.59;5072680;28;39998;-74
2021/03/27 01:26:30;;;;;;;13.27;10.67;;;;;;;8.22;62.36;98726.91;5079519;28;42402;-74
2021/03/27 01:29:01;;;;;;;12.03;10.60;;;;;;;8.21;62.59;98717.31;5090537;28;42740;-74
2021/03/27 01:31:37;;;;;;;13.33;10.23;;;;;;;8.24;63.26;98715.34;5072067;28;42935;-75
2021/03/27 01:34:15;;;;;;;14.80;10.40;;;;;;;8.20;62.34;98713.81;5109726;28;40753;-74
2021/03/27 01:36:47;;;;;;;13.97;11.93;;;;;;;8.25;62.78;98716.22;5092642;28;41507;-74
2021/03/27 01:39:17;;;;;;;12.90;10.10;;;;;;;8.29;63.06;98718.56;5110804;28;43535;-74
2021/03/27 01:41:57;;;;;;;16.13;11.80;;;;;;;8.34;63.62;98699.88;5091862;28;43392;-74
2021/03/27 01:44:46;;;;;;;15.07;11.77;;;;;;;8.32;64.52;98685.06;5111041;28;40545;-74
2021/03/27 01:47:24;;;;;;;17.10;11.73;;;;;;;8.36;64.98;98671.63;5110079;28;42362;-74
2021/03/27 01:50:13;;;;;;;17.43;13.40;;;;;;;8.54;64.38;98680.28;5093310;28;42169;-75
2021/03/27 01:52:59;;;;;;;18.03;13.67;;;;;;;8.60;64.49;98686.06;5109909;28;42789;-74
2021/03/27 01:55:38;;;;;;;16.97;13.60;;;;;;;8.67;64.45;98686.56;5110625;28;40006;-74
2021/03/27 01:58:13;;;;;;;17.37;12.80;;;;;;;8.71;64.03;98700.44;5093164;28;41577;-75
2021/03/27 02:00:45;;;;;;;15.70;12.63;;;;;;;8.70;63.97;98702.22;5109696;28;42714;-74
2021/03/27 02:03:19;;;;;;;14.27;10.97;;;;;;;8.64;63.61;98686.75;5110380;28;42561;-74
2021/03/27 02:05:53;;;;;;;12.90;11.23;;;;;;;8.52;64.34;98661.06;5110492;28;40495;-74
2021/03/27 02:08:38;;;;;;;16.40;12.40;;;;;;;8.81;64.14;98696.34;5093158;28;41036;-74
2021/03/27 02:11:09;;;;;;;16.83;12.43;;;;;;;8.81;63.94;98704.25;5091983;28;43166;-74
2021/03/27 02:13:42;;;;;;;14.03;11.53;;;;;;;8.85;63.75;98706.63;5093074;28;41553;-74
2021/03/27 02:16:17;;;;;;;15.80;12.07;;;;;;;8.89;63.28;98708.16;5092420;28;40543;-74
2021/03/27 02:19:08;;;;;;;12.73;9.90;;;;;;;8.94;63.10;98705.25;5092040;28;41450;-75
2021/03/27 02:21:58;;;;;;;15.07;11.00;;;;;;;8.94;62.85;98710.53;5091916;28;42726;-74
2021/03/27 02:24:47;;;;;;;15.97;9.60;;;;;;;8.89;63.39;98697.59;5079556;28;42731;-74
2021/03/27 02:27:19;;;;;;;15.43;11.70;;;;;;;8.74;63.39;98690.56;5091847;28;40909;-74
2021/03/27 02:30:08;;;;;;;15.33;10.80;;;;;;;8.77;63.71;98700.97;5092921;28;41751;-74
2021/03/27 02:32:50;;;;;;;16.27;10.63;;;;;;;8.74;63.62;98698.50;5109754;28;43571;-74
2021/03/27 02:35:28;;;;;;;15.40;11.17;;;;;;;8.76;63.52;98685.19;5109620;28;42110;-74
2021/03/27 02:38:06;;;;;;;14.93;10.57;;;;;;;8.80;63.07;98689.34;5091860;28;40471;-74
2021/03/27 02:40:37;;;;;;;11.37;9.03;;;;;;;8.86;62.83;98684.56;5092577;28;41608;-74
2021/03/27 02:43:11;;;;;;;14.00;11.17;;;;;;;8.92;63.30;98681.56;5075471;28;42580;-74
2021/03/27 02:45:48;;;;;;;13.90;10.97;;;;;;;8.99;63.04;98682.91;5109645;28;42208;-74
2021/03/27 02:48:20;;;;;;;13.37;11.03;;;;;;;9.09;63.08;98674.44;5110284;28;39669;-74
2021/03/27 02:50:56;;;;;;;14.73;11.67;;;;;;;9.17;63.20;98680.13;5109471;28;42257;-75
2021/03/27 02:53:28;;;;;;;12.27;9.87;;;;;;;9.28;63.03;98682.97;5110166;28;43394;-74
2021/03/27 02:56:11;;;;;;;11.70;10.47;;;;;;;9.37;62.74;98693.00;5109839;28;42997;-75
2021/03/27 02:58:48;;;;;;;11.73;9.63;;;;;;;9.46;62.05;98707.44;5091837;28;40701;-74
2021/03/27 03:01:25;;;;;;;12.70;9.03;;;;;;;9.49;62.31;98707.28;5091348;28;41740;-74
2021/03/27 03:03:58;;;;;;;14.83;11.27;;;;;;;9.50;62.51;98717.75;5075537;28;42579;-75
2021/03/27 03:06:29;;;;;;;12.53;10.70;;;;;;;9.49;62.92;98708.13;5092179;28;41200;-74
2021/03/27 03:09:08;;;;;;;14.20;10.77;;;;;;;9.56;64.09;98692.72;5110230;28;40588;-74
2021/03/27 03:11:50;;;;;;;14.63;11.40;;;;;;;9.51;64.66;98682.44;5092096;28;40760;-74
2021/03/27 03:14:26;;;;;;;13.07;11.60;;;;;;;9.49;64.77;98697.53;5095349;28;42859;-74
2021/03/27 03:17:04;;;;;;;13.70;11.37;;;;;;;9.50;65.04;98688.69;5079168;28;20222;-74
2021/03/27 03:19:42;;;;;;;13.60;9.93;;;;;;;9.53;65.63;98683.19;5113194;28;40863;-74
2021/03/27 03:22:14;;;;;;;14.30;10.60;;;;;;;9.60;65.58;98697.75;5094342;28;42545;-75
2021/03/27 03:24:45;;;;;;;13.70;10.17;;;;;;;9.67;65.74;98699.06;5112978;28;43527;-75
2021/03/27 03:27:17;;;;;;;14.20;10.23;;;;;;;9.72;66.10;98699.63;5112172;28;42200;-74
2021/03/27 03:30:14;;;;;;;16.10;9.33;;;;;;;9.86;65.69;98711.16;5112525;28;39787;-74
2021/03/27 03:32:49;;;;;;;10.23;9.20;;;;;;;9.96;64.93;98718.41;5075616;28;41712;-74
2021/03/27 03:35:29;;;;;;;10.67;8.30;;;;;;;9.96;64.83;98707.84;5091885;28;42431;-74
2021/03/27 03:38:09;;;;;;;11.27;8.87;;;;;;;10.08;65.16;98724.75;5102536;28;41984;-74
2021/03/27 03:40:51;;;;;;;12.17;8.93;;;;;;;10.13;65.76;98720.03;5095630;28;40248;-74
2021/03/27 03:43:27;;;;;;;9.00;8.07;;;;;;;10.15;66.02;98718.09;5112294;28;41739;-75
2021/03/27 03:46:18;;;;;;;9.57;7.97;;;;;;;10.29;65.40;98725.22;5094177;28;43428;-75
2021/03/27 03:49:00;;;;;;;9.80;7.83;;;;;;;10.41;65.60;98740.31;5078156;28;42078;-74
2021/03/27 03:51:34;;;;;;;11.70;8.33;;;;;;;10.50;65.66;98738.91;5094336;28;39821;-75
2021/03/27 03:54:23;;;;;;;8.67;7.50;;;;;;;10.58;66.71;98741.91;5094726;28;41825;-75
2021/03/27 03:56:58;;;;;;;8.13;6.23;;;;;;;10.36;70.57;98753.00;5078427;28;41544;-75
2021/03/27 03:59:37;;;;;;;8.50;6.30;;;;;;;10.08;72.98;98780.31;5095221;28;41290;-75
2021/03/27 04:02:12;;;;;;;10.87;6.57;;;;;;;10.02;75.08;98807.13;5093797;28;39985;-75
2021/03/27 04:04:47;;;;;;;10.00;7.43;;;;;;;9.94;76.66;98830.56;5078372;28;40777;-74
2021/03/27 04:07:19;;;;;;;9.53;8.53;;;;;;;9.73;77.34;98806.25;5112124;28;43171;-75
2021/03/27 04:09:51;;;;;;;9.07;8.03;;;;;;;9.82;77.71;98810.13;5111771;28;42268;-75
2021/03/27 04:12:24;;;;;;;10.27;8.30;;;;;;;9.75;78.19;98782.38;5093970;28;41876;-74
2021/03/27 04:15:13;;;;;;;9.97;8.17;;;;;;;9.86;77.85;98775.47;5094966;28;40580;-75
2021/03/27 04:17:46;;;;;;;9.90;7.77;;;;;;;9.89;77.38;98783.22;5077973;28;42615;-75
2021/03/27 04:20:19;;;;;;;9.03;7.00;;;;;;;9.86;77.48;98786.06;5111620;28;42960;-75
2021/03/27 04:22:53;;;;;;;10.17;7.60;;;;;;;9.86;77.24;98803.72;5093847;27;39887;-74
2021/03/27 04:25:34;;;;;;;9.60;8.60;;;;;;;9.83;77.32;98798.63;5112095;28;41198;-75
2021/03/27 04:28:11;;;;;;;8.40;7.40;;;;;;;9.66;77.50;98784.59;5093020;28;42824;-74
2021/03/27 04:31:00;;;;;;;11.67;7.77;;;;;;;9.76;78.04;98814.03;5092613;28;42109;-74
2021/03/27 04:33:40;;;;;;;8.97;6.07;;;;;;;9.73;77.40;98815.03;5094772;28;38881;-74
2021/03/27 04:36:13;;;;;;;7.60;5.50;;;;;;;9.73;77.49;98817.69;5111461;28;42420;-75
2021/03/27 04:38:48;;;;;;;6.77;5.80;;;;;;;9.72;77.15;98821.28;5112294;28;43420;-75
2021/03/27 04:41:30;;;;;;;6.97;6.27;;;;;;;9.70;76.93;98833.72;5111900;28;42202;-75
2021/03/27 04:44:06;;;;;;;5.50;5.00;;;;;;;9.68;76.76;98837.41;5077601;28;39873;-75
2021/03/27 04:46:41;;;;;;;8.43;5.73;;;;;;;9.64;76.79;98834.06;5111150;28;41680;-74
2021/03/27 04:49:18;;;;;;;5.87;5.37;;;;;;;9.50;76.58;98823.50;5093222;28;42535;-75
2021/03/27 04:51:55;;;;;;;5.77;5.20;;;;;;;9.54;76.88;98840.84;5082376;28;41921;-75
2021/03/27 04:55:08;;;;;;;5.73;4.33;;;;;;;9.51;76.63;98843.69;5126558;28;40803;-75
2021/03/27 04:57:43;;;;;;;4.57;3.77;;;;;;;9.45;76.89;98837.91;5094679;28;41743;-75
2021/03/27 05:00:25;;;;;;;4.40;4.00;;;;;;;9.44;76.66;98844.97;5107085;28;42910;-75
2021/03/27 05:03:17;;;;;;;4.13;3.73;;;;;;;9.45;76.39;98859.03;5108930;28;41092;-75
2021/03/27 05:05:55;;;;;;;4.13;3.73;;;;;;;9.46;76.29;98871.31;5101328;28;41420;-74
2021/03/27 05:08:45;;;;;;;5.30;3.80;;;;;;;9.39;76.63;98865.56;5093666;28;42127;-75
2021/03/27 05:11:22;;;;;;;4.83;3.77;;;;;;;9.40;76.35;98876.94;5073188;28;42017;-75
2021/03/27 05:14:00;;;;;;;4.43;3.70;;;;;;;9.38;76.20;98884.13;5072843;28;41975;-75
2021/03/27 05:16:32;;;;;;;5.07;4.37;;;;;;;9.20;76.73;98880.75;5056778;28;38869;-75
2021/03/27 05:19:06;;;;;;;4.10;3.70;;;;;;;9.37;77.07;98907.06;5090364;28;43375;-74
2021/03/27 05:21:46;;;;;;;4.80;4.30;;;;;;;9.44;76.73;98920.78;5100531;28;43420;-75
2021/03/27 05:24:26;;;;;;;5.93;3.70;;;;;;;9.51;76.06;98933.59;5110825;28;42139;-74
2021/03/27 05:27:08;;;;;;;4.30;3.90;;;;;;;9.54;76.34;98941.31;5092350;28;40667;-73
2021/03/27 05:29:46;;;;;;;5.87;4.00;;;;;;;9.54;76.05;98951.88;5092628;28;42336;-73
2021/03/27 05:32:37;;;;;;;3.77;3.47;;;;;;;9.52;75.49;98972.25;5092976;28;43537;-74
2021/03/27 05:35:20;;;;;;;5.53;4.23;;;;;;;9.52;75.21;98987.31;5075738;28;42510;-75
2021/03/27 05:37:58;;;;;;;4.20;3.27;;;;;;;9.49;74.18;98998.03;5093281;28;39628;-75
2021/03/27 05:41:22;;;;;;;2.70;1.97;;;;;;;9.40;71.87;99031.09;5092102;28;41649;-75
2021/03/27 05:44:31;;;;;;;2.03;1.57;;;;;;;9.35;71.45;99041.09;5092030;28;42772;-75
2021/03/27 05:47:28;;;;;;;1.40;1.30;;;;;;;9.28;70.50;99053.78;5093418;28;42081;-75
2021/03/27 05:50:22;;;;;;;1.60;1.27;;;;;;;9.29;71.21;99068.69;5076139;28;39907;-76
2021/03/27 05:53:26;;;;;;;1.63;1.10;;;;;;;9.29;71.02;99065.19;5110639;28;41692;-76
2021/03/27 05:56:23;;;;;;;1.37;0.90;;;;;;;9.33;70.71;99093.19;5091580;28;43178;-75
2021/03/27 05:59:14;;;;;;;0.90;0.80;;;;;;;9.30;68.50;99107.41;5110340;28;42927;-75
2021/03/27 06:01:52;;;;;;;2.63;0.60;;;;;;;9.19;66.09;99116.84;5092337;28;41880;-76
2021/03/27 06:04:45;;;;;;;1.00;0.50;;;;;;;9.17;65.11;99135.41;5092360;28;41333;-75
2021/03/27 06:07:51;;;;;;;0.47;0.40;;;;;;;9.14;64.21;99140.03;5076087;28;41916;-75
2021/03/27 06:10:36;;;;;;;0.93;0.67;;;;;;;9.08;64.25;99150.91;5088789;28;41185;-75
2021/03/27 06:13:24;;;;;;;0.70;0.50;;;;;;;8.95;62.95;99171.81;5092166;28;38870;-74
2021/03/27 06:16:24;;;;;;;1.90;0.50;;;;;;;8.78;61.81;99169.19;5076101;28;41703;-74
2021/03/27 06:19:20;;;;;;;1.60;0.50;;;;;;;8.55;62.05;99181.72;5092876;28;42684;-74
2021/03/27 06:22:01;;;;;;;2.13;0.53;;;;;;;8.34;62.06;99176.63;5110076;28;42392;-74
2021/03/27 06:24:48;;;;;;;1.53;0.40;;;;;;;8.20;62.48;99193.06;5110445;28;39988;-74
2021/03/27 06:27:49;;;;;;;0.37;0.30;;;;;;;8.22;62.71;99197.34;5110075;28;42534;-74
2021/03/27 06:30:58;;;;;;;0.73;0.37;;;;;;;8.27;62.43;99210.34;5091822;28;42300;-74
2021/03/27 06:33:55;;;;;;;0.70;0.40;;;;;;;8.32;62.99;99211.00;5054868;28;42205;-74
2021/03/27 06:36:34;;;;;;;1.00;0.57;;;;;;;8.34;62.19;99227.63;5109221;28;40457;-74
2021/03/27 06:39:25;;;;;;;1.00;0.50;;;;;;;8.16;62.01;99205.56;5109984;28;42140;-74
2021/03/27 06:42:19;;;;;;;1.17;0.63;;;;;;;8.41;62.24;99228.16;5091237;28;42735;-74
2021/03/27 06:45:13;;;;;;;1.60;0.47;;;;;;;8.45;61.07;99235.03;5125892;27;41940;-74
2021/03/27 06:48:10;;;;;;;1.27;0.50;;;;;;;8.59;59.77;99253.69;5078178;28;39019;-74
2021/03/27 06:51:01;;;;;;;1.23;0.50;;;;;;;8.79;58.50;99268.56;5052698;28;41640;-74
2021/03/27 06:53:48;;;;;;;0.80;0.57;;;;;;;8.84;58.05;99270.06;5113494;28;42777;-74
2021/03/27 06:56:34;;;;;;;0.90;0.53;;;;;;;8.83;58.01;99273.63;5112956;28;42256;-74
2021/03/27 06:59:13;;;;;;;1.63;0.40;;;;;;;8.99;58.42;99274.59;5095146;28;41629;-75
2021/03/27 07:02:17;;;;;;;0.53;0.40;;;;;;;9.35;57.59;99294.84;5112402;28;41759;-74
2021/03/27 07:05:20;;;;;;;1.30;0.40;;;;;;;9.77;55.52;99312.09;5110333;28;43448;-75
2021/03/27 07:08:30;;;;;;;1.27;0.40;;;;;;;10.15;54.92;99325.91;5111372;28;43116;-75
2021/03/27 07:11:45;;;;;;;1.07;0.47;;;;;;;10.27;53.53;99336.75;5064327;28;38574;-74
2021/03/27 07:14:48;;;;;;;0.40;0.40;;;;;;;10.02;54.69;99321.28;5055406;28;40885;-75
2021/03/27 07:17:41;;;;;;;0.53;0.30;;;;;;;10.09;54.39;99333.25;5084128;28;42177;-77
2021/03/27 07:20:30;;;;;;;1.10;0.40;;;;;;;10.01;52.49;99361.91;5084121;28;42084;-75
2021/03/27 07:23:28;;;;;;;2.27;0.53;;;;;;;9.95;52.57;99351.66;5106898;28;40546;-75
2021/03/27 07:26:22;;;;;;;0.43;0.40;;;;;;;9.96;52.44;99369.25;5091150;28;42296;-75
2021/03/27 07:29:03;;;;;;;0.30;0.30;;;;;;;10.03;53.27;99365.31;5109142;28;43382;-75
2021/03/27 07:31:50;;;;;;;0.90;0.40;;;;;;;10.25;53.09;99390.72;5075618;28;41924;-75
2021/03/27 07:34:53;;;;;;;1.40;0.60;;;;;;;10.34;52.26;99379.66;5108897;28;39547;-75
2021/03/27 07:37:58;;;;;;;0.83;0.47;;;;;;;10.43;52.79;99384.44;5102061;28;41765;-76
2021/03/27 07:40:34;;;;;;;1.07;0.70;;;;;;;10.51;50.93;99413.19;5090753;28;43116;-75
2021/03/27 07:43:52;;;;;;;1.30;0.50;;;;;;;10.69;51.24;99412.19;5075595;28;42244;-75
2021/03/27 07:46:29;;;;;;;1.20;0.53;;;;;;;11.04;51.19;99431.44;5044258;28;39978;-74
2021/03/27 07:49:20;;;;;;;1.13;0.40;;;;;;;11.16;49.96;99444.88;5069966;28;41754;-75
2021/03/27 07:52:23;;;;;;;2.47;0.80;;;;;;;11.68;48.17;99446.38;5073607;28;41956;-75
2021/03/27 07:55:12;;;;;;;0.47;0.47;;;;;;;15.09;41.54;99489.97;5090360;28;41927;-76
2021/03/27 07:58:05;;;;;;;1.63;0.50;;;;;;;17.57;37.21;99508.50;5108624;27;41995;-76
2021/03/27 08:00:48;;;;;;;1.27;0.57;;;;;;;17.28;35.40;99520.72;5084654;28;40785;-75
2021/03/27 08:03:41;;;;;;;0.43;0.40;;;;;;;18.69;32.71;99529.63;5091229;28;41764;-74
2021/03/27 08:06:33;;;;;;;0.97;0.60;;;;;;;16.97;34.17;99532.13;5087748;28;42578;-74
2021/03/27 08:09:34;;;;;;;1.53;0.70;;;;;;;14.90;36.74;99505.59;5086409;28;39917;-75
2021/03/27 08:12:28;;;;;;;1.33;0.70;;;;;;;13.87;40.33;99508.13;5087392;28;41694;-75
2021/03/27 08:15:16;;;;;;;0.87;0.60;;;;;;;13.19;44.71;99489.47;5108874;28;42731;-78
2021/03/27 08:18:12;;;;;;;1.50;0.60;;;;;;;12.68;45.58;99492.69;5103904;28;41824;-75
2021/03/27 08:20:48;;;;;;;0.90;0.53;;;;;;;12.79;46.50;99483.09;5088061;28;40404;-75
2021/03/27 08:23:40;;;;;;;3.27;0.80;;;;;;;15.44;41.76;99499.97;5087924;28;41276;-75
2021/03/27 08:26:31;;;;;;;1.93;0.80;;;;;;;15.89;40.58;99527.84;5090235;28;41720;-74
2021/03/27 08:29:49;;;;;;;1.93;0.73;;;;;;;17.91;37.69;99529.94;5089671;28;41862;-75
2021/03/27 08:32:47;;;;;;;1.23;0.70;;;;;;;19.43;35.32;99542.88;5088394;28;40424;-76
2021/03/27 08:35:27;;;;;;;3.57;0.70;;;;;;;20.98;30.59;99583.38;5089475;28;40745;-74
2021/03/27 08:38:27;;;;;;;2.10;1.17;;;;;;;21.09;26.87;99603.91;5108066;28;42659;-74
2021/03/27 08:41:20;;;;;;;1.57;0.60;;;;;;;21.65;25.40;99619.22;5086837;28;41902;-75
2021/03/27 08:44:19;;;;;;;2.00;0.80;;;;;;;19.69;28.84;99585.31;5090344;28;40306;-75
2021/03/27 08:46:58;;;;;;;2.27;1.00;;;;;;;18.75;29.76;99590.81;5089395;28;42078;-75
2021/03/27 08:49:58;;;;;;;3.33;1.10;;;;;;;19.22;28.52;99604.69;5089026;28;42555;-75
2021/03/27 08:52:44;;;;;;;1.83;1.03;;;;;;;21.02;26.86;99622.47;5071383;28;41500;-75
2021/03/27 08:55:33;;;;;;;0.93;0.63;;;;;;;20.07;27.64;99622.22;5090152;28;41215;-75
2021/03/27 08:58:14;;;;;;;3.63;1.13;;;;;;;18.67;29.27;99606.69;5107075;28;42041;-75
2021/03/27 09:01:23;;;;;;;6.40;5.07;;;;;;;17.81;30.87;99595.94;5089790;28;42804;-74
2021/03/27 09:04:17;;;;;;;1.07;1.00;;;;;;;17.18;31.89;99586.66;5104408;28;42022;-74
2021/03/27 09:07:09;;;;;;;2.03;1.07;;;;;;;18.28;31.52;99568.81;5107309;28;39864;-76
2021/03/27 09:10:06;;;;;;;2.10;1.00;;;;;;;20.67;27.37;99624.88;5107562;27;41949;-74
2021/03/27 09:13:02;;;;;;;2.07;1.20;;;;;;;20.83;28.40;99616.25;5085815;28;43262;-75
2021/03/27 09:15:44;;;;;;;2.57;0.93;;;;;;;24.08;25.47;99634.19;5087170;28;43000;-75
2021/03/27 09:18:26;;;;;;;1.10;1.00;;;;;;;27.05;21.15;99666.69;5088549;28;40070;-77
2021/03/27 09:21:26;;;;;;;2.33;1.30;;;;;;;28.65;17.87;99677.94;5068106;28;41684;-75
2021/03/27 09:24:00;;;;;;;2.20;1.30;;;;;;;26.85;19.08;99682.59;5090648;28;42631;-76
2021/03/27 09:26:59;;;;;;;3.23;1.37;;;;;;;26.84;19.10;99680.88;5108751;28;42818;-75
2021/03/27 09:29:56;;;;;;;4.47;1.30;;;;;;;26.64;19.12;99680.50;5090038;28;40435;-75
2021/03/27 09:32:44;;;;;;;2.43;1.10;;;;;;;26.98;19.66;99682.03;5091574;28;40627;-75
2021/03/27 09:35:47;;;;;;;2.10;1.10;;;;;;;26.12;19.54;99680.22;5092873;28;42792;-75
2021/03/27 09:38:29;;;;;;;2.77;1.50;;;;;;;26.44;18.75;99684.72;5093486;28;41628;-75
2021/03/27 09:41:22;;;;;;;2.53;1.20;;;;;;;26.26;19.79;99667.78;5110294;28;40069;-76
2021/03/27 09:44:10;;;;;;;1.23;0.87;;;;;;;26.26;19.02;99675.91;5092926;28;42205;-75
2021/03/27 09:46:47;;;;;;;2.60;0.83;;;;;;;25.27;20.06;99689.84;5093545;28;43132;-76
2021/03/27 09:49:29;;;;;;;1.87;1.13;;;;;;;24.82;20.59;99668.59;5069252;28;41957;-74
2021/03/27 09:52:34;;;;;;;1.20;0.77;;;;;;;24.84;20.23;99674.72;5071714;28;40522;-75
2021/03/27 09:55:16;;;;;;;2.60;1.10;;;;;;;23.53;21.41;99653.47;5062504;28;41399;-74
2021/03/27 09:57:54;;;;;;;1.93;0.90;;;;;;;22.61;22.53;99656.53;5105025;28;42504;-74
2021/03/27 10:00:41;;;;;;;2.13;1.03;;;;;;;22.03;23.02;99651.47;5088458;28;42846;-76
2021/03/27 10:03:17;;;;;;;2.10;0.97;;;;;;;22.01;22.89;99658.84;5085780;28;39583;-75
2021/03/27 10:05:53;;;;;;;2.03;0.90;;;;;;;21.56;23.75;99658.72;5090043;28;41586;-74
2021/03/27 10:08:26;;;;;;;1.80;0.80;;;;;;;22.07;23.53;99652.03;5106694;28;43494;-74
2021/03/27 10:11:01;;;;;;;2.00;1.03;;;;;;;22.10;24.16;99633.69;5106266;28;41665;-74
2021/03/27 10:13:53;;;;;;;2.23;0.80;;;;;;;24.07;22.77;99646.00;5104629;28;40350;-75
2021/03/27 10:16:26;;;;;;;3.80;1.00;;;;;;;23.51;21.95;99666.31;5102547;28;42278;-74
2021/03/27 10:19:01;;;;;;;1.70;0.90;;;;;;;22.19;22.57;99661.63;5084610;28;43491;-75
2021/03/27 10:21:41;;;;;;;1.27;0.73;;;;;;;22.36;22.78;99673.47;5102645;28;42035;-75
2021/03/27 10:24:26;;;;;;;2.30;1.10;;;;;;;22.03;23.21;99664.94;5099427;28;40685;-75
2021/03/27 10:27:01;;;;;;;2.10;1.00;;;;;;;20.77;23.90;99650.00;5104707;28;41683;-73
2021/03/27 10:29:37;;;;;;;3.03;1.33;;;;;;;20.26;24.82;99632.19;5092429;28;43438;-74
2021/03/27 10:32:25;;;;;;;3.17;0.70;;;;;;;19.65;25.31;99621.53;5109344;28;42055;-75
2021/03/27 10:34:57;;;;;;;2.50;1.00;;;;;;;19.34;26.27;99620.59;5074658;28;39270;-74
2021/03/27 10:37:32;;;;;;;2.97;1.13;;;;;;;20.59;24.83;99631.00;5109698;28;42405;-73
2021/03/27 10:40:38;;;;;;;4.00;1.00;;;;;;;22.47;23.68;99636.31;5108404;28;42441;-75
2021/03/27 10:43:37;;;;;;;5.53;1.03;;;;;;;24.24;20.78;99647.78;5089726;28;43271;-76
2021/03/27 10:46:23;;;;;;;3.67;1.20;;;;;;;26.13;20.25;99658.31;5086538;28;40800;-74
2021/03/27 10:49:05;;;;;;;2.87;0.80;;;;;;;26.53;18.49;99671.94;5108410;28;41555;-76
2021/03/27 10:52:13;;;;;;;5.07;1.40;;;;;;;25.09;19.56;99676.47;5108477;28;42764;-76
2021/03/27 10:55:09;;;;;;;2.57;1.00;;;;;;;25.50;19.43;99677.28;5077273;28;41631;-76
2021/03/27 10:58:10;;;;;;;1.60;0.93;;;;;;;24.06;20.73;99671.38;5108735;28;39885;-75
2021/03/27 11:00:55;;;;;;;3.10;1.10;;;;;;;22.13;22.35;99662.22;5089322;28;42348;-74
2021/03/27 11:03:53;;;;;;;3.23;1.10;;;;;;;20.84;24.13;99666.44;5091424;28;41912;-74
2021/03/27 11:06:53;;;;;;;2.63;1.00;;;;;;;19.79;25.11;99632.88;5049787;28;42656;-74
2021/03/27 11:10:00;;;;;;;3.20;1.10;;;;;;;20.25;25.18;99627.81;5087754;28;39833;-73
2021/03/27 11:12:57;;;;;;;2.00;0.87;;;;;;;19.76;25.41;99649.28;5108248;28;42430;-74
2021/03/27 11:15:42;;;;;;;1.80;0.70;;;;;;;19.32;25.92;99624.41;5090261;28;43416;-75
2021/03/27 11:18:28;;;;;;;2.13;0.90;;;;;;;18.80;26.76;99623.47;5091125;28;41343;-75
2021/03/27 11:21:15;;;;;;;2.00;0.87;;;;;;;18.44;27.81;99629.19;5071634;28;40623;-75
2021/03/27 11:24:14;;;;;;;2.70;1.10;;;;;;;18.30;28.09;99639.22;5090303;28;42174;-75
2021/03/27 11:27:05;;;;;;;1.90;0.90;;;;;;;17.94;28.09;99647.56;5107886;28;43513;-74
2021/03/27 11:29:39;;;;;;;3.07;0.80;;;;;;;17.73;28.81;99627.88;5088295;28;42012;-76
2021/03/27 11:32:15;;;;;;;2.73;1.13;;;;;;;17.99;28.34;99634.66;5074183;28;40194;-75
2021/03/27 11:34:48;;;;;;;2.13;0.80;;;;;;;18.25;28.45;99619.16;5077362;28;40528;-76
2021/03/27 11:37:36;;;;;;;3.33;1.10;;;;;;;21.63;24.73;99640.97;5112301;28;42714;-76
2021/03/27 11:40:07;;;;;;;4.23;1.00;;;;;;;22.33;23.71;99665.66;5108678;28;42713;-76
2021/03/27 11:42:40;;;;;;;1.03;0.70;;;;;;;21.47;23.54;99656.91;5110881;28;41401;-75
2021/03/27 11:45:13;;;;;;;2.73;1.13;;;;;;;20.93;24.87;99661.03;5112060;28;41912;-75
2021/03/27 11:47:52;;;;;;;4.50;1.33;;;;;;;20.83;23.72;99665.56;5111566;28;43265;-75
2021/03/27 11:50:48;;;;;;;3.27;1.37;;;;;;;20.21;24.81;99661.34;5093201;28;42750;-76
2021/03/27 11:53:36;;;;;;;2.43;0.90;;;;;;;19.53;25.24;99636.03;5093680;28;40585;-75
2021/03/27 11:56:12;;;;;;;4.10;0.90;;;;;;;18.99;26.17;99639.75;5093215;28;41757;-76
2021/03/27 12:01:50;;;;;;;4.73;1.33;;;;;;;18.82;26.42;99629.56;5110104;28;42147;-75
2021/03/27 12:04:53;;;;;;;3.60;1.20;;;;;;;18.55;26.79;99659.53;5093475;28;38937;-76
2021/03/27 12:07:26;;;;;;;3.23;1.20;;;;;;;18.11;27.89;99644.41;5093005;28;41527;-76
2021/03/27 12:10:01;;;;;;;3.83;1.00;;;;;;;19.65;26.85;99653.78;5072445;28;44150;-77
2021/03/27 12:12:39;;;;;;;2.20;0.80;;;;;;;22.64;24.00;99660.75;5092492;28;41966;-75
2021/03/27 12:15:18;;;;;;;2.60;0.87;;;;;;;25.05;21.58;99707.63;5111193;28;40462;-74
2021/03/27 12:17:57;;;;;;;1.83;1.10;;;;;;;24.73;21.45;99718.38;5110902;28;41447;-74
2021/03/27 12:20:35;;;;;;;2.97;1.13;;;;;;;25.40;20.59;99744.41;5092138;28;43292;-76
2021/03/27 12:23:15;;;;;;;3.27;0.90;;;;;;;26.76;19.86;99719.84;5093488;28;41316;-75
2021/03/27 12:25:54;;;;;;;3.13;0.80;;;;;;;28.09;18.36;99737.50;5110474;28;39485;-76
2021/03/27 12:28:36;;;;;;;2.23;1.03;;;;;;;28.81;18.01;99758.66;5118757;28;41858;-76
2021/03/27 12:31:14;;;;;;;2.77;1.20;;;;;;;29.76;17.86;99752.97;5119868;28;43829;-77
2021/03/27 12:34:03;;;;;;;2.40;1.20;;;;;;;30.25;16.99;99764.72;5120453;28;42996;-76
2021/03/27 12:36:40;;;;;;;2.67;1.13;;;;;;;30.75;17.03;99759.97;5103686;28;41113;-75
2021/03/27 12:39:27;;;;;;;2.00;1.30;;;;;;;31.08;16.20;99760.91;5120097;28;41925;-76
2021/03/27 12:42:06;;;;;;;3.50;1.20;;;;;;;30.71;16.90;99758.69;5093919;28;42671;-76
2021/03/27 12:44:39;;;;;;;3.30;1.27;;;;;;;28.95;17.43;99755.91;5072227;28;41768;-76
2021/03/27 12:47:54;;;;;;;3.97;1.30;;;;;;;26.39;18.84;99768.59;5109606;28;39818;-76
2021/03/27 12:50:34;;;;;;;4.07;1.50;;;;;;;23.84;20.99;99738.56;5054362;28;41189;-75
2021/03/27 12:53:21;;;;;;;3.70;1.50;;;;;;;22.26;23.17;99740.97;5098525;28;42805;-75
2021/03/27 12:56:08;;;;;;;5.67;1.40;;;;;;;21.13;24.67;99735.47;5093184;28;41676;-75